createdAt,value
2022-08-22T00:02:10.336Z,84.58
2022-08-22T00:03:01.583Z,71.83
2022-08-22T00:03:12.560Z,84.10
2022-08-22T00:07:10.251Z,84.32
2022-08-22T00:12:10.169Z,85.03
2022-08-22T00:17:10.105Z,85.57
2022-08-22T00:22:10.039Z,85.37
2022-08-22T00:27:09.977Z,85.27
2022-08-22T00:32:10.353Z,85.68
2022-08-22T00:37:09.851Z,85.92
2022-08-22T00:42:09.774Z,85.92
2022-08-22T00:47:09.718Z,86.22
2022-08-22T00:52:09.634Z,86.12
2022-08-22T00:57:09.572Z,85.82
2022-08-22T01:02:09.504Z,85.92
2022-08-22T01:07:09.464Z,86.26
2022-08-22T01:12:09.368Z,86.46
2022-08-22T01:17:09.319Z,86.87
2022-08-22T01:22:09.238Z,87.31
2022-08-22T01:27:09.179Z,87.31
2022-08-22T01:32:09.105Z,87.42
2022-08-22T01:37:09.055Z,87.62
2022-08-22T01:42:08.978Z,87.42
2022-08-22T01:47:08.921Z,87.72
2022-08-22T01:52:08.840Z,88.06
2022-08-22T01:57:08.801Z,87.96
2022-08-22T02:02:08.713Z,88.17
2022-08-22T02:07:08.659Z,87.86
2022-08-22T02:12:13.916Z,88.06
2022-08-22T02:17:09.559Z,88.06
2022-08-22T02:22:08.449Z,87.96
2022-08-22T02:27:08.403Z,88.00
2022-08-22T02:32:08.332Z,88.00
2022-08-22T02:37:08.269Z,88.11
2022-08-22T02:42:08.199Z,87.90
2022-08-22T02:47:08.134Z,87.80
2022-08-22T02:52:08.061Z,87.90
2022-08-22T02:57:13.069Z,88.45
2022-08-22T03:02:07.940Z,88.75
2022-08-22T03:07:07.880Z,89.26
2022-08-22T03:12:07.810Z,89.56
2022-08-22T03:17:07.743Z,89.67
2022-08-22T03:22:07.687Z,89.87
2022-08-22T03:27:07.611Z,89.87
2022-08-22T03:32:07.554Z,89.67
2022-08-22T03:37:07.483Z,89.47
2022-08-22T03:42:07.414Z,89.67
2022-08-22T03:47:07.348Z,89.67
2022-08-22T03:52:07.282Z,89.30
2022-08-22T03:57:07.227Z,89.30
2022-08-22T04:02:31.470Z,89.81
2022-08-22T04:07:15.843Z,89.30
2022-08-22T04:12:08.046Z,89.30
2022-08-22T04:17:06.956Z,89.75
2022-08-22T04:22:06.889Z,89.85
2022-08-22T04:27:06.824Z,90.20
2022-08-22T04:32:06.754Z,90.91
2022-08-22T04:37:06.691Z,91.01
2022-08-22T04:42:30.831Z,90.87
2022-08-22T04:47:07.577Z,90.57
2022-08-22T04:52:06.490Z,90.26
2022-08-22T04:57:06.429Z,89.91
2022-08-22T05:02:06.687Z,89.10
2022-08-22T05:07:06.297Z,88.11
2022-08-22T05:12:06.240Z,86.85
2022-08-22T05:17:06.165Z,84.50
2022-08-22T05:22:06.119Z,82.40
2022-08-22T05:27:06.036Z,80.75
2022-08-22T05:32:05.970Z,79.16
2022-08-22T05:37:08.076Z,78.08
2022-08-22T05:42:05.841Z,76.70
2022-08-22T05:47:05.775Z,76.15
2022-08-22T05:52:06.043Z,75.01
2022-08-22T05:57:07.914Z,74.57
2022-08-22T06:02:05.656Z,73.74
2022-08-22T06:07:05.515Z,73.20
2022-08-22T06:12:05.442Z,71.89
2022-08-22T06:17:05.379Z,70.72
2022-08-22T06:22:05.320Z,68.42
2022-08-22T06:27:05.247Z,66.26
2022-08-22T06:32:05.184Z,62.45
2022-08-22T06:37:05.119Z,60.90
2022-08-22T06:42:05.064Z,61.52
2022-08-22T06:47:04.987Z,60.96
2022-08-22T06:52:04.933Z,58.66
2022-08-22T06:57:04.842Z,57.87
2022-08-22T07:02:04.853Z,56.73
2022-08-22T07:07:04.714Z,54.99
2022-08-22T07:12:04.658Z,53.87
2022-08-22T07:17:04.649Z,54.24
2022-08-22T07:22:04.524Z,53.72
2022-08-22T07:27:04.818Z,53.52
2022-08-22T07:32:04.395Z,53.22
2022-08-22T07:37:04.338Z,52.83
2022-08-22T07:42:04.275Z,52.43
2022-08-22T07:47:04.207Z,51.89
2022-08-22T07:52:04.153Z,52.26
2022-08-22T07:57:04.076Z,52.16
2022-08-22T08:02:04.011Z,52.16
2022-08-22T08:07:03.948Z,51.34
2022-08-22T08:12:03.882Z,50.63
2022-08-22T08:17:03.816Z,49.42
2022-08-22T08:22:03.851Z,50.36
2022-08-22T08:27:03.775Z,52.33
2022-08-22T08:32:03.710Z,50.85
2022-08-22T08:37:03.579Z,50.53
2022-08-22T08:42:03.558Z,49.54
2022-08-22T08:47:03.477Z,51.81
2022-08-22T08:52:03.429Z,49.74
2022-08-22T08:57:03.354Z,50.73
2022-08-22T09:02:03.244Z,50.80
2022-08-22T09:07:03.182Z,48.51
2022-08-22T09:12:03.145Z,47.55
2022-08-22T09:17:03.045Z,45.64
2022-08-22T09:22:02.983Z,45.56
2022-08-22T09:27:02.921Z,46.90
2022-08-22T09:32:02.851Z,46.19
2022-08-22T09:37:02.779Z,44.01
2022-08-22T09:42:02.806Z,45.44
2022-08-22T09:47:02.661Z,44.37
2022-08-22T09:52:05.269Z,45.09
2022-08-22T09:57:03.549Z,47.31
2022-08-22T10:02:02.476Z,45.83
2022-08-22T10:07:02.393Z,46.42
2022-08-22T10:12:02.350Z,48.02
2022-08-22T10:17:02.276Z,50.23
2022-08-22T10:22:02.212Z,50.62
2022-08-22T10:27:02.142Z,49.59
2022-08-22T10:32:05.985Z,49.34
2022-08-22T10:37:02.026Z,49.90
2022-08-22T10:42:01.954Z,49.98
2022-08-22T10:47:01.896Z,48.91
2022-08-22T10:52:14.862Z,48.59
2022-08-22T10:57:02.796Z,50.23
2022-08-22T11:02:01.747Z,50.00
2022-08-22T11:07:01.636Z,47.28
2022-08-22T11:12:01.567Z,46.56
2022-08-22T11:17:01.505Z,47.87
2022-08-22T11:22:03.802Z,46.96
2022-08-22T11:27:01.379Z,46.32
2022-08-22T11:32:05.710Z,45.92
2022-08-22T11:37:01.254Z,47.38
2022-08-22T11:42:01.183Z,47.38
2022-08-22T11:47:01.124Z,47.77
2022-08-22T11:52:01.066Z,47.68
2022-08-22T11:57:00.987Z,48.07
2022-08-22T12:02:00.979Z,48.40
2022-08-22T12:07:00.858Z,48.07
2022-08-22T12:12:00.802Z,47.92
2022-08-22T12:17:00.730Z,47.90
2022-08-22T12:22:00.679Z,46.88
2022-08-22T12:27:00.607Z,47.10
2022-08-22T12:32:00.546Z,48.54
2022-08-22T12:37:00.493Z,48.24
2022-08-22T12:42:00.423Z,48.34
2022-08-22T12:47:00.359Z,48.34
2022-08-22T12:52:04.474Z,47.94
2022-08-22T12:57:00.222Z,47.65
2022-08-22T13:02:00.166Z,47.32
2022-08-22T13:07:00.094Z,47.43
2022-08-22T13:12:00.038Z,48.12
2022-08-22T13:16:59.966Z,46.71
2022-08-22T13:22:00.948Z,47.62
2022-08-22T13:26:59.848Z,47.32
2022-08-22T13:31:59.793Z,47.52
2022-08-22T13:36:59.712Z,47.13
2022-08-22T13:41:59.682Z,46.51
2022-08-22T13:47:13.810Z,46.49
2022-08-22T13:52:00.560Z,46.49
2022-08-22T13:56:59.465Z,46.49
2022-08-22T14:01:59.456Z,46.81
2022-08-22T14:06:59.326Z,46.43
2022-08-22T14:11:59.268Z,46.33
2022-08-22T14:16:59.215Z,44.72
2022-08-22T14:21:59.507Z,45.42
2022-08-22T14:26:59.075Z,48.02
2022-08-22T14:31:59.011Z,48.74
2022-08-22T14:36:58.932Z,48.34
2022-08-22T14:42:03.438Z,48.04
2022-08-22T14:46:59.011Z,48.02
2022-08-22T14:51:58.746Z,47.82
2022-08-22T14:56:58.679Z,46.16
2022-08-22T15:01:58.725Z,47.55
2022-08-22T15:06:58.619Z,49.53
2022-08-22T15:11:58.484Z,49.85
2022-08-22T15:16:58.405Z,50.47
2022-08-22T15:21:58.363Z,50.57
2022-08-22T15:26:58.278Z,50.87
2022-08-22T15:31:58.242Z,49.08
2022-08-22T15:36:58.152Z,49.78
2022-08-22T15:41:58.092Z,50.47
2022-08-22T15:46:58.009Z,50.40
2022-08-22T15:51:57.972Z,50.79
2022-08-22T15:56:57.889Z,50.70
2022-08-22T16:01:57.899Z,50.40
2022-08-22T16:06:57.742Z,51.12
2022-08-22T16:11:57.694Z,52.23
2022-08-22T16:16:57.627Z,52.64
2022-08-22T16:21:57.563Z,53.13
2022-08-22T16:26:57.509Z,53.26
2022-08-22T16:31:57.444Z,53.66
2022-08-22T16:36:57.378Z,53.46
2022-08-22T16:41:57.315Z,53.58
2022-08-22T16:46:57.265Z,53.68
2022-08-22T16:51:57.188Z,53.78
2022-08-22T16:56:57.132Z,53.68
2022-08-22T17:01:57.136Z,53.58
2022-08-22T17:06:57.044Z,54.08
2022-08-22T17:11:57.022Z,53.98
2022-08-22T17:16:56.970Z,53.51
2022-08-22T17:21:56.806Z,54.41
2022-08-22T17:26:56.752Z,54.41
2022-08-22T17:31:56.673Z,55.03
2022-08-22T17:36:56.614Z,55.33
2022-08-22T17:41:56.551Z,56.03
2022-08-22T17:46:56.479Z,55.95
2022-08-22T17:51:56.408Z,56.35
2022-08-22T17:57:05.533Z,56.95
2022-08-22T18:01:56.274Z,57.25
2022-08-22T18:06:56.552Z,57.48
2022-08-22T18:11:56.145Z,58.08
2022-08-22T18:16:56.099Z,58.00
2022-08-22T18:21:56.018Z,58.20
2022-08-22T18:26:55.968Z,58.50
2022-08-22T18:31:55.897Z,58.73
2022-08-22T18:36:55.836Z,59.23
2022-08-22T18:41:55.767Z,59.53
2022-08-22T18:46:55.699Z,59.86
2022-08-22T18:51:55.628Z,60.06
2022-08-22T18:56:55.575Z,60.26
2022-08-22T19:01:55.545Z,60.89
2022-08-22T19:06:55.434Z,61.29
2022-08-22T19:11:55.363Z,61.22
2022-08-22T19:16:55.316Z,61.52
2022-08-22T19:21:55.240Z,61.72
2022-08-22T19:26:55.185Z,62.45
2022-08-22T19:31:55.101Z,63.15
2022-08-22T19:36:55.054Z,64.48
2022-08-22T19:41:54.983Z,65.48
2022-08-22T19:46:54.928Z,66.32
2022-08-22T19:51:54.846Z,67.05
2022-08-22T19:56:54.796Z,67.35
2022-08-22T20:01:54.732Z,67.65
2022-08-22T20:06:54.660Z,67.85
2022-08-22T20:11:54.600Z,68.35
2022-08-22T20:16:54.531Z,68.55
2022-08-22T20:21:54.467Z,69.48
2022-08-22T20:27:12.743Z,70.22
2022-08-22T20:31:58.653Z,70.42
2022-08-22T20:37:09.872Z,71.06
2022-08-22T20:41:55.236Z,71.56
2022-08-22T20:46:55.015Z,71.89
2022-08-22T20:51:54.062Z,71.69
2022-08-22T20:56:54.048Z,71.99
2022-08-22T21:01:53.930Z,71.89
2022-08-22T21:06:53.880Z,71.79
2022-08-22T21:11:53.799Z,72.30
2022-08-22T21:16:53.739Z,72.50
2022-08-22T21:21:53.663Z,72.83
2022-08-22T21:26:53.609Z,72.93
2022-08-22T21:31:53.531Z,73.04
2022-08-22T21:36:53.471Z,73.24
2022-08-22T21:41:53.557Z,73.43
2022-08-22T21:46:53.336Z,73.54
2022-08-22T21:51:53.271Z,74.57
2022-08-22T21:56:53.213Z,75.01
2022-08-22T22:01:53.139Z,75.31
2022-08-22T22:06:53.084Z,76.52
2022-08-22T22:11:53.015Z,77.13
2022-08-22T22:16:52.951Z,77.33
2022-08-22T22:21:52.892Z,77.73
2022-08-22T22:26:52.818Z,78.27
2022-08-22T22:31:52.746Z,78.47
2022-08-22T22:36:52.689Z,78.81
2022-08-22T22:41:52.622Z,79.11
2022-08-22T22:46:52.567Z,79.31
2022-08-22T22:51:52.499Z,79.96
2022-08-22T22:56:52.445Z,80.26
2022-08-22T23:01:52.362Z,80.26
2022-08-22T23:06:52.323Z,80.70
2022-08-22T23:11:52.244Z,81.20
2022-08-22T23:16:52.192Z,81.84
2022-08-22T23:21:52.127Z,82.35
2022-08-22T23:26:52.060Z,82.99
2022-08-22T23:31:51.996Z,83.09
2022-08-22T23:36:51.931Z,83.09
2022-08-22T23:41:51.860Z,82.53
2022-08-22T23:46:51.802Z,82.63
2022-08-22T23:51:51.732Z,83.03
2022-08-22T23:56:51.676Z,83.98
